createdAt,value
2019-02-07T00:02:14.798Z,22.15
2019-02-07T00:07:06.032Z,23.67
2019-02-07T00:11:57.232Z,22.50
2019-02-07T00:16:49.345Z,20.77
2019-02-07T00:21:40.587Z,19.43
2019-02-07T00:26:32.609Z,18.73
2019-02-07T00:31:23.890Z,22.07
2019-02-07T00:36:15.127Z,21.97
2019-02-07T00:41:06.361Z,17.60
2019-02-07T00:45:57.606Z,18.80
2019-02-07T00:50:55.804Z,18.00
2019-02-07T00:55:47.040Z,19.70
2019-02-07T01:00:38.311Z,14.13
2019-02-07T01:05:30.306Z,17.70
2019-02-07T01:10:25.720Z,18.03
2019-02-07T01:15:16.975Z,16.20
2019-02-07T01:20:09.998Z,17.67
2019-02-07T01:25:08.436Z,16.40
2019-02-07T01:29:59.697Z,19.00
2019-02-07T01:34:51.035Z,18.73
2019-02-07T01:39:43.049Z,17.33
2019-02-07T01:44:34.325Z,20.80
2019-02-07T01:49:25.661Z,16.40
2019-02-07T01:54:16.965Z,20.90
2019-02-07T01:59:08.974Z,20.93
2019-02-07T02:04:00.248Z,17.43
2019-02-07T02:08:52.414Z,14.30
2019-02-07T02:13:43.723Z,12.97
2019-02-07T02:18:35.719Z,13.90
2019-02-07T02:23:26.955Z,17.20
2019-02-07T02:28:18.223Z,16.33
2019-02-07T02:33:09.575Z,14.90
2019-02-07T02:38:00.843Z,14.70
2019-02-07T02:42:52.154Z,12.33
2019-02-07T02:47:43.417Z,20.47
2019-02-07T02:52:34.709Z,14.57
2019-02-07T02:57:25.981Z,11.90
2019-02-07T03:02:22.138Z,16.43
2019-02-07T03:07:13.406Z,15.63
2019-02-07T03:12:06.211Z,13.93
2019-02-07T03:16:59.645Z,15.77
2019-02-07T03:21:56.937Z,14.80
2019-02-07T03:26:56.132Z,14.47
2019-02-07T03:31:47.416Z,12.00
2019-02-07T03:36:42.159Z,11.30
2019-02-07T03:41:34.192Z,13.20
2019-02-07T03:46:32.471Z,14.63
2019-02-07T03:51:28.405Z,14.00
2019-02-07T03:56:38.410Z,13.43
2019-02-07T04:01:42.713Z,13.23
2019-02-07T04:06:34.012Z,14.87
2019-02-07T04:11:25.445Z,13.80
2019-02-07T04:16:17.673Z,17.80
2019-02-07T04:21:09.891Z,13.17
2019-02-07T04:26:02.109Z,12.73
2019-02-07T04:30:54.355Z,20.33
2019-02-07T04:35:48.666Z,11.17
2019-02-07T04:40:40.743Z,11.23
2019-02-07T04:45:32.967Z,12.97
2019-02-07T04:50:24.260Z,13.93
2019-02-07T04:55:18.459Z,12.85
2019-02-07T05:00:17.409Z,15.23
2019-02-07T05:05:15.666Z,12.73
2019-02-07T05:10:13.146Z,10.80
2019-02-07T05:15:04.439Z,12.47
2019-02-07T05:25:24.639Z,10.50
2019-02-07T05:30:19.738Z,12.83
2019-02-07T05:35:17.100Z,11.37
2019-02-07T05:40:09.221Z,11.30
2019-02-07T05:45:06.554Z,10.85
2019-02-07T05:49:57.874Z,10.77
2019-02-07T05:54:55.272Z,11.20
2019-02-07T05:59:46.605Z,10.60
2019-02-07T06:04:38.819Z,10.73
2019-02-07T06:09:34.972Z,10.50
2019-02-07T06:14:32.335Z,11.57
2019-02-07T06:19:26.139Z,12.57
2019-02-07T06:24:20.600Z,10.07
2019-02-07T06:29:18.021Z,12.30
2019-02-07T06:39:30.995Z,9.88
2019-02-07T06:44:28.855Z,8.03
2019-02-07T06:49:20.034Z,11.77
2019-02-07T06:54:23.958Z,10.80
2019-02-07T07:04:47.673Z,11.80
2019-02-07T07:09:50.886Z,9.17
2019-02-07T07:14:48.361Z,10.60
2019-02-07T07:20:01.995Z,10.87
2019-02-07T07:30:11.868Z,12.57
2019-02-07T07:35:03.806Z,12.47
2019-02-07T07:39:56.630Z,11.93
2019-02-07T07:44:54.538Z,11.63
2019-02-07T07:49:45.462Z,8.20
2019-02-07T07:54:37.345Z,15.17
2019-02-07T07:59:29.137Z,10.67
2019-02-07T08:04:25.021Z,13.97
2019-02-07T08:09:33.956Z,11.70
2019-02-07T08:14:24.879Z,15.07
2019-02-07T08:19:16.624Z,16.67
2019-02-07T08:24:10.553Z,12.27
2019-02-07T08:29:06.582Z,15.60
2019-02-07T08:34:04.578Z,16.83
2019-02-07T08:39:02.415Z,14.60
2019-02-07T08:49:18.630Z,15.60
2019-02-07T08:54:15.018Z,12.87
2019-02-07T08:59:09.321Z,19.07
2019-02-07T09:04:05.774Z,17.98
2019-02-07T09:08:59.931Z,16.52
2019-02-07T09:13:55.886Z,23.60
2019-02-07T09:18:50.099Z,16.70
2019-02-07T09:23:42.810Z,17.80
2019-02-07T09:28:36.157Z,17.83
2019-02-07T09:33:31.412Z,17.67
2019-02-07T09:38:28.908Z,17.40
2019-02-07T09:43:25.479Z,14.17
2019-02-07T09:48:21.958Z,15.33
2019-02-07T09:58:34.057Z,17.33
2019-02-07T10:03:36.094Z,15.10
2019-02-07T10:08:42.266Z,16.30
2019-02-07T10:13:39.728Z,16.83
2019-02-07T10:18:37.067Z,13.90
2019-02-07T10:29:05.516Z,11.85
2019-02-07T10:33:57.891Z,13.80
2019-02-07T10:39:03.165Z,13.80
2019-02-07T10:44:15.255Z,13.60
2019-02-07T10:49:09.519Z,14.20
2019-02-07T10:54:16.572Z,15.43
2019-02-07T10:59:13.868Z,15.03
2019-02-07T11:04:11.032Z,9.23
2019-02-07T11:09:08.693Z,9.47
2019-02-07T11:19:28.817Z,9.40
2019-02-07T11:24:26.042Z,12.27
2019-02-07T11:29:24.193Z,9.93
2019-02-07T11:39:40.152Z,13.38
2019-02-07T11:44:44.255Z,12.67
2019-02-07T11:49:46.471Z,10.33
2019-02-07T11:54:37.707Z,14.07
2019-02-07T11:59:31.974Z,12.53
2019-02-07T12:04:24.217Z,9.97
2019-02-07T12:09:18.525Z,11.93
2019-02-07T12:19:33.646Z,12.47
2019-02-07T12:24:28.817Z,15.37
2019-02-07T12:29:22.976Z,15.97
2019-02-07T12:34:20.449Z,12.80
2019-02-07T12:39:15.734Z,13.03
2019-02-07T12:44:18.773Z,15.60
2019-02-07T12:54:56.597Z,15.30
2019-02-07T12:59:48.657Z,17.23
2019-02-07T13:04:53.858Z,16.47
2019-02-07T13:09:49.057Z,16.60
2019-02-07T13:14:41.454Z,15.03
2019-02-07T13:24:54.203Z,13.73
2019-02-07T13:35:22.930Z,13.67
2019-02-07T13:40:20.188Z,17.20
2019-02-07T13:45:13.901Z,20.20
2019-02-07T13:50:06.604Z,16.37
2019-02-07T13:54:58.858Z,11.70
2019-02-07T13:59:57.288Z,21.03
2019-02-07T14:04:49.753Z,14.20
2019-02-07T14:09:41.712Z,12.95
2019-02-07T14:14:45.857Z,9.55
2019-02-07T14:25:14.706Z,10.18
2019-02-07T14:30:10.882Z,13.27
2019-02-07T14:40:21.889Z,12.18
2019-02-07T14:45:27.782Z,10.30
2019-02-07T14:50:18.794Z,10.40
2019-02-07T14:55:09.789Z,15.70
2019-02-07T15:00:00.735Z,9.67
2019-02-07T15:04:51.647Z,8.60
2019-02-07T15:09:42.567Z,8.97
2019-02-07T15:14:34.240Z,9.23
2019-02-07T15:19:25.162Z,10.77
2019-02-07T15:24:16.116Z,10.37
2019-02-07T15:29:07.816Z,10.00
2019-02-07T15:33:58.755Z,9.40
2019-02-07T15:38:50.419Z,12.23
2019-02-07T15:43:41.338Z,8.97
2019-02-07T15:48:32.283Z,9.87
2019-02-07T15:53:23.236Z,11.87
2019-02-07T15:58:14.162Z,10.80
2019-02-07T16:03:05.085Z,10.20
2019-02-07T16:07:56.775Z,11.23
2019-02-07T16:12:48.460Z,10.23
2019-02-07T16:17:40.141Z,12.88
2019-02-07T16:22:31.124Z,12.83
2019-02-07T16:27:22.150Z,11.30
2019-02-07T16:32:13.100Z,12.90
2019-02-07T16:37:04.066Z,9.93
2019-02-07T16:42:05.601Z,13.57
2019-02-07T16:46:45.968Z,16.83
2019-02-07T16:51:36.886Z,15.73
2019-02-07T16:56:27.876Z,15.53
2019-02-07T17:01:18.795Z,13.00
2019-02-07T17:06:10.451Z,13.07
2019-02-07T17:11:01.386Z,15.70
2019-02-07T17:15:52.290Z,14.33
2019-02-07T17:20:43.369Z,16.63
2019-02-07T17:25:35.100Z,17.33
2019-02-07T17:30:26.022Z,16.83
2019-02-07T17:35:16.936Z,17.50
2019-02-07T17:40:08.914Z,18.20
2019-02-07T17:44:59.870Z,16.57
2019-02-07T17:49:50.795Z,18.60
2019-02-07T17:54:41.718Z,21.20
2019-02-07T17:59:33.507Z,19.00
2019-02-07T18:04:25.180Z,23.00
2019-02-07T18:09:16.108Z,20.27
2019-02-07T18:14:07.025Z,17.10
2019-02-07T18:18:57.985Z,21.87
2019-02-07T18:23:49.642Z,19.98
2019-02-07T18:28:40.554Z,17.53
2019-02-07T18:33:32.213Z,18.03
2019-02-07T18:38:23.228Z,20.60
2019-02-07T18:43:14.198Z,20.27
2019-02-07T18:48:05.149Z,17.53
2019-02-07T18:52:56.080Z,22.80
2019-02-07T18:57:47.006Z,26.67
2019-02-07T19:02:38.032Z,21.20
2019-02-07T19:07:28.955Z,21.52
2019-02-07T19:12:19.884Z,24.87
2019-02-07T19:17:10.826Z,22.53
2019-02-07T19:22:01.754Z,23.60
2019-02-07T19:26:53.426Z,22.27
2019-02-07T19:31:44.386Z,23.00
2019-02-07T19:36:35.382Z,26.43
2019-02-07T19:41:26.316Z,24.87
2019-02-07T19:46:17.979Z,24.50
2019-02-07T19:51:08.902Z,25.43
2019-02-07T19:55:59.811Z,30.67
2019-02-07T20:00:50.768Z,25.97
2019-02-07T20:05:42.454Z,23.50
2019-02-07T20:10:33.379Z,28.33
2019-02-07T20:15:24.294Z,24.23
2019-02-07T20:20:15.223Z,27.57
2019-02-07T20:25:06.153Z,26.40
2019-02-07T20:29:57.100Z,25.98
2019-02-07T20:34:48.877Z,27.40
2019-02-07T20:39:40.162Z,27.00
2019-02-07T20:44:31.830Z,24.30
2019-02-07T20:49:22.838Z,25.73
2019-02-07T20:54:14.279Z,22.97
2019-02-07T20:59:05.198Z,26.10
2019-02-07T21:03:56.829Z,27.60
2019-02-07T21:08:47.759Z,28.87
2019-02-07T21:13:38.712Z,27.83
2019-02-07T21:18:29.627Z,26.83
2019-02-07T21:23:21.040Z,25.00
2019-02-07T21:28:14.559Z,28.07
2019-02-07T21:33:07.467Z,28.23
2019-02-07T21:38:01.005Z,28.47
2019-02-07T21:42:53.566Z,27.73
2019-02-07T21:47:44.663Z,26.73
2019-02-07T21:52:41.771Z,30.87
2019-02-07T21:57:27.827Z,25.25
2019-02-07T22:02:19.570Z,28.50
2019-02-07T22:07:10.487Z,24.83
2019-02-07T22:12:02.183Z,24.83
2019-02-07T22:16:53.102Z,26.17
2019-02-07T22:21:44.436Z,29.87
2019-02-07T22:26:35.571Z,29.50
2019-02-07T22:31:26.555Z,31.50
2019-02-07T22:36:17.584Z,32.60
2019-02-07T22:41:08.501Z,30.92
2019-02-07T22:46:00.174Z,23.77
2019-02-07T22:50:51.827Z,29.20
2019-02-07T22:55:42.816Z,30.60
2019-02-07T23:05:51.068Z,26.85
2019-02-07T23:10:42.325Z,30.37
2019-02-07T23:15:33.543Z,28.07
2019-02-07T23:20:25.541Z,32.40
2019-02-07T23:25:17.633Z,33.67
2019-02-07T23:30:09.867Z,29.20
2019-02-07T23:35:01.872Z,29.37
2019-02-07T23:39:54.179Z,31.37
2019-02-07T23:44:45.428Z,34.00
2019-02-07T23:49:37.528Z,29.63
2019-02-07T23:54:29.528Z,26.53
2019-02-07T23:59:36.655Z,27.47
